EDT,Max TemperatureF,Mean TemperatureF,Min TemperatureF,Max Dew PointF,MeanDew PointF,Min DewpointF,Max Humidity, Mean Humidity, Min Humidity, Max Sea Level PressureIn, Mean Sea Level PressureIn, Min Sea Level PressureIn, Max VisibilityMiles, Mean VisibilityMiles, Min VisibilityMiles, Max Wind SpeedMPH, Mean Wind SpeedMPH, Max Gust SpeedMPH,PrecipitationIn, CloudCover, Events, WindDirDegrees
2012-7-1,102,86,73,73,68,59,88,65,27,30.01,29.92,29.85,10,9,2,15,3,23,0.31,1,Rain-Thunderstorm,332
2012-7-2,93,80,66,69,65,62,100,77,36,30.21,30.07,29.93,10,8,1,24,5,37,0.46,4,Rain-Thunderstorm,280
2012-7-3,93,82,72,70,68,64,87,69,41,30.07,29.97,29.92,10,10,10,13,4,25,0.00,0,,282
2012-7-4,93,80,70,71,68,64,91,69,42,30.01,29.95,29.91,10,10,9,17,3,25,0.00,2,Rain-Thunderstorm,294
2012-7-5,96,84,71,71,67,63,87,66,37,30.00,29.94,29.89,10,10,10,18,5,28,0.00,1,Rain-Thunderstorm,317
2012-7-6,95,80,68,70,66,62,84,61,38,30.01,29.94,29.89,10,10,10,7,4,,0.00,0,,306
2012-7-7,97,84,71,71,68,63,87,62,36,29.99,29.96,29.91,10,10,9,8,4,,0.00,0,,238
2012-7-8,98,86,75,72,70,62,87,64,32,30.02,29.91,29.82,10,10,7,12,2,,0.00,0,,246
2012-7-9,95,83,73,73,69,64,91,69,40,29.96,29.88,29.85,10,10,5,15,5,21,0.02,1,Rain-Thunderstorm,330
2012-7-10,86,78,71,72,70,68,96,83,59,30.05,29.99,29.92,10,9,3,14,5,23,0.36,7,Rain-Thunderstorm,52
2012-7-11,77,72,68,70,67,64,97,87,66,30.18,30.09,30.00,10,8,3,9,3,,0.05,8,Rain,29
2012-7-12,73,70,66,67,64,61,94,85,76,30.21,30.15,30.09,10,8,1,9,4,,0.00,8,Rain,17
2012-7-13,82,74,69,73,69,66,94,86,65,30.23,30.17,30.10,10,8,2,7,2,,0.22,7,Rain-Thunderstorm,52
2012-7-14,88,79,71,72,70,67,100,83,51,30.26,30.18,30.08,10,7,0,10,2,,0.01,5,Fog,208
2012-7-15,89,78,68,73,70,66,100,82,52,30.25,30.15,30.06,10,7,0,8,1,,0.21,3,Fog-Rain-Thunderstorm,302
2012-7-16,90,80,71,72,70,68,93,83,50,30.07,30.01,29.95,10,9,2,17,2,23,0.21,2,Rain-Thunderstorm,264
2012-7-17,91,80,71,71,69,65,96,71,45,29.98,29.93,29.88,10,10,8,8,2,,0.00,1,,275
2012-7-18,91,80,71,71,69,66,90,73,48,30.03,29.95,29.89,10,10,5,16,3,28,0.01,1,Rain-Thunderstorm,275
2012-7-19,91,80,70,72,70,68,93,73,52,30.03,29.97,29.91,10,10,9,9,3,,0.01,2,Rain-Thunderstorm,225
2012-7-20,87,78,70,72,69,66,93,81,51,29.99,29.92,29.86,10,10,10,8,3,,0.00,2,Rain,253
2012-7-21,88,78,69,73,70,64,100,89,59,30.10,30.01,29.91,10,4,0,17,2,33,3.99,5,Fog-Rain-Thunderstorm,200
2012-7-22,84,76,71,73,71,67,100,87,65,30.21,30.13,30.03,10,6,0,7,1,,0.01,3,Fog-Thunderstorm,27
2012-7-23,91,80,71,73,72,68,100,85,51,30.24,30.14,30.03,10,6,0,12,2,,0.03,3,Fog-Rain-Thunderstorm,293
2012-7-24,91,82,72,71,69,65,93,74,50,30.02,29.95,29.85,10,10,10,10,3,16,0.01,1,Rain,305
2012-7-25,89,79,69,75,69,65,90,78,58,30.04,29.94,29.87,10,9,2,14,4,22,0.29,2,Rain-Thunderstorm,290
2012-7-26,93,83,73,74,72,68,100,78,45,29.94,29.87,29.78,10,7,1,12,2,,0.00,1,,239
2012-7-27,93,83,75,72,70,67,87,67,47,29.94,29.87,29.82,10,10,10,12,4,,0.01,1,Rain-Thunderstorm,262
2012-7-28,91,80,70,72,67,62,93,66,38,30.03,29.94,29.89,10,10,10,9,2,,0.01,0,,267
2012-7-29,90,78,68,66,63,58,90,61,37,30.07,29.96,29.91,10,10,9,7,2,,0.00,1,,350
2012-7-30,90,79,69,68,65,60,87,66,40,29.99,29.95,29.90,10,10,10,8,2,,0.00,1,,41
2012-7-31,80,73,66,70,68,65,94,83,70,30.03,29.97,29.88,10,8,1,9,1,,0.40,4,Rain,85